Time;durP1;ratioP1;P1;durP2;ratioP2;P2;SDS_P1;SDS_P2;PMS_P1;PMS_P2;Temp;Humidity;BMP_temperature;BMP_pressure;BME280_temperature;BME280_humidity;BME280_pressure;Samples;Min_cycle;Max_cycle;Signal;HPM_P1;HPM_P2
2022/10/13 03:00:42;;;;;;;42.17;38.27;;;12.40;99.90;;;;;;5995153;23;20416;-72
2022/10/13 03:03:11;;;;;;;40.07;36.20;;;12.50;99.90;;;;;;4967206;28;20475;-72
2022/10/13 03:05:38;;;;;;;39.43;35.90;;;12.50;99.90;;;;;;4969444;28;20487;-71
2022/10/13 03:08:05;;;;;;;40.60;36.67;;;12.60;99.90;;;;;;4970983;28;20464;-72
2022/10/13 03:10:32;;;;;;;39.57;35.57;;;12.60;99.90;;;;;;4970927;28;20448;-72
2022/10/13 03:12:59;;;;;;;40.60;36.27;;;12.70;99.90;;;;;;4971177;28;20456;-73
2022/10/13 03:15:25;;;;;;;40.47;36.50;;;12.70;99.90;;;;;;4970776;28;20447;-72
2022/10/13 03:17:52;;;;;;;40.00;36.10;;;12.70;99.90;;;;;;4970760;28;20459;-72
2022/10/13 03:20:20;;;;;;;37.93;34.43;;;12.60;99.90;;;;;;4970536;28;20459;-72
2022/10/13 03:22:47;;;;;;;41.77;37.27;;;12.60;99.90;;;;;;4970592;28;20463;-72
2022/10/13 03:25:14;;;;;;;36.77;32.97;;;12.70;99.90;;;;;;4970793;28;20490;-72
2022/10/13 03:27:40;;;;;;;36.53;32.83;;;12.70;99.90;;;;;;4970733;28;20838;-72
2022/10/13 03:30:09;;;;;;;37.27;33.60;;;12.70;99.90;;;;;;4970488;28;20463;-72
2022/10/13 03:32:35;;;;;;;37.17;33.80;;;12.70;99.90;;;;;;4970294;28;20502;-72
2022/10/13 03:35:02;;;;;;;38.90;35.23;;;12.70;99.90;;;;;;4970295;28;20780;-72
2022/10/13 03:37:30;;;;;;;36.43;33.40;;;12.70;99.90;;;;;;4970607;28;20450;-72
2022/10/13 03:39:57;;;;;;;36.97;33.67;;;12.70;99.90;;;;;;4970455;28;20514;-72
2022/10/13 03:42:24;;;;;;;37.03;33.43;;;12.70;99.90;;;;;;4970149;28;20447;-72
2022/10/13 03:44:51;;;;;;;32.93;30.17;;;12.70;99.90;;;;;;4970114;28;20733;-72
2022/10/13 03:47:17;;;;;;;35.87;32.37;;;12.60;99.90;;;;;;4970235;28;20945;-72
2022/10/13 03:49:44;;;;;;;32.83;29.77;;;12.60;99.90;;;;;;4970756;28;20467;-72
2022/10/13 03:52:11;;;;;;;32.13;29.53;;;12.60;99.90;;;;;;4970398;28;20452;-72
2022/10/13 03:54:39;;;;;;;32.93;29.83;;;12.60;99.90;;;;;;4970258;28;20718;-72
2022/10/13 03:57:06;;;;;;;33.83;30.60;;;12.60;99.90;;;;;;4969838;28;20451;-72
2022/10/13 03:59:32;;;;;;;34.53;31.33;;;12.60;99.90;;;;;;4969714;28;20452;-72
2022/10/13 04:01:59;;;;;;;33.37;30.10;;;12.60;99.90;;;;;;4970031;28;20892;-72
2022/10/13 04:04:26;;;;;;;34.47;30.80;;;12.60;99.90;;;;;;4969941;28;20451;-73
2022/10/13 04:06:53;;;;;;;32.90;29.80;;;12.70;99.90;;;;;;4969585;28;20592;-73
2022/10/13 04:09:19;;;;;;;33.00;30.20;;;12.80;99.90;;;;;;4970076;28;20451;-73
2022/10/13 04:11:50;;;;;;;32.37;29.43;;;12.80;99.90;;;;;;4970135;28;20460;-72
2022/10/13 04:14:16;;;;;;;32.90;29.90;;;12.90;99.90;;;;;;4970173;28;20499;-72
2022/10/13 04:16:43;;;;;;;34.23;30.73;;;12.90;99.90;;;;;;4969913;28;20452;-73
2022/10/13 04:19:13;;;;;;;33.50;30.50;;;12.80;99.90;;;;;;4969634;28;20474;-72
2022/10/13 04:21:40;;;;;;;34.27;31.30;;;12.80;99.90;;;;;;4969217;28;20455;-73
2022/10/13 04:24:08;;;;;;;28.63;26.33;;;12.80;99.90;;;;;;4969539;28;20953;-72
2022/10/13 04:26:36;;;;;;;35.37;31.20;;;12.80;99.90;;;;;;4969506;28;20490;-73
2022/10/13 04:29:05;;;;;;;32.07;28.87;;;12.80;99.90;;;;;;4969781;28;20452;-72
2022/10/13 04:31:32;;;;;;;30.40;27.90;;;12.70;99.90;;;;;;4969809;28;20459;-73
2022/10/13 04:33:59;;;;;;;33.57;30.00;;;12.70;99.90;;;;;;4970108;28;20467;-73
2022/10/13 04:36:26;;;;;;;35.70;32.60;;;12.60;99.90;;;;;;4969782;28;20448;-72
2022/10/13 04:38:53;;;;;;;34.73;31.90;;;12.50;99.90;;;;;;4969367;28;20559;-73
2022/10/13 04:41:21;;;;;;;34.07;30.53;;;12.50;99.90;;;;;;4969152;28;20479;-72
2022/10/13 04:43:49;;;;;;;33.17;30.27;;;12.40;99.90;;;;;;4969424;28;20563;-73
2022/10/13 04:46:19;;;;;;;36.00;32.50;;;12.40;99.90;;;;;;4969582;28;20488;-71
2022/10/13 04:48:47;;;;;;;35.63;32.37;;;12.40;99.90;;;;;;4969577;28;20459;-72
2022/10/13 04:51:16;;;;;;;33.53;30.50;;;12.40;99.90;;;;;;4969806;28;20447;-72
2022/10/13 04:53:43;;;;;;;33.97;30.77;;;12.40;99.90;;;;;;4969667;28;20929;-72
2022/10/13 04:56:12;;;;;;;34.20;30.97;;;12.30;99.90;;;;;;4969466;28;20455;-72
2022/10/13 04:58:39;;;;;;;33.93;30.57;;;12.40;99.90;;;;;;4969335;28;20443;-72
2022/10/13 05:01:08;;;;;;;34.30;30.40;;;12.40;99.90;;;;;;4969461;28;20479;-72
2022/10/13 05:03:36;;;;;;;33.20;29.43;;;12.30;99.90;;;;;;4969712;28;20491;-72
2022/10/13 05:06:03;;;;;;;36.03;32.53;;;12.40;99.90;;;;;;4969186;28;20498;-72
2022/10/13 05:08:31;;;;;;;34.23;31.37;;;12.40;99.90;;;;;;4969600;28;20463;-72
2022/10/13 05:11:00;;;;;;;35.00;31.80;;;12.40;99.90;;;;;;4969705;28;20941;-72
2022/10/13 05:13:28;;;;;;;32.83;29.87;;;12.50;99.90;;;;;;4969508;28;20455;-72
2022/10/13 05:15:55;;;;;;;36.60;32.93;;;12.50;99.90;;;;;;4969117;28;20513;-72
2022/10/13 05:18:22;;;;;;;35.13;30.93;;;12.50;99.90;;;;;;4969239;28;20452;-72
2022/10/13 05:20:50;;;;;;;33.73;30.83;;;12.50;99.90;;;;;;4969509;28;20451;-72
2022/10/13 05:23:17;;;;;;;37.67;33.07;;;12.50;99.90;;;;;;4969496;28;20526;-72
2022/10/13 05:25:44;;;;;;;37.13;33.63;;;12.50;99.90;;;;;;4969290;28;20483;-72
2022/10/13 05:28:10;;;;;;;37.40;33.90;;;12.50;99.90;;;;;;4968970;28;20458;-72
2022/10/13 05:30:37;;;;;;;36.03;32.60;;;12.60;99.90;;;;;;4968945;28;20456;-72
2022/10/13 05:33:04;;;;;;;34.27;31.67;;;12.60;99.90;;;;;;4969882;28;20452;-72
2022/10/13 05:35:31;;;;;;;35.30;31.97;;;12.60;99.90;;;;;;4972672;28;20522;-72
2022/10/13 05:37:59;;;;;;;34.67;31.67;;;12.70;99.90;;;;;;4964874;28;20798;-72
2022/10/13 05:40:27;;;;;;;35.67;31.93;;;12.80;99.90;;;;;;4972439;28;20451;-72
2022/10/13 05:42:54;;;;;;;34.40;31.53;;;12.80;99.90;;;;;;4972315;28;20513;-72
2022/10/13 05:45:22;;;;;;;34.87;31.60;;;12.80;99.90;;;;;;4972279;28;20471;-72
2022/10/13 05:47:49;;;;;;;36.40;33.00;;;12.90;99.90;;;;;;4972301;28;20490;-72
2022/10/13 05:50:15;;;;;;;35.93;32.73;;;12.80;99.90;;;;;;4972415;28;20455;-72
2022/10/13 05:52:43;;;;;;;35.03;31.70;;;12.90;99.90;;;;;;4972257;28;20559;-72
2022/10/13 05:55:15;;;;;;;33.00;29.87;;;12.80;99.90;;;;;;4972057;28;20566;-71
2022/10/13 05:57:44;;;;;;;35.67;32.20;;;12.90;99.90;;;;;;4972431;28;20949;-72
2022/10/13 06:00:13;;;;;;;34.53;31.23;;;12.80;99.90;;;;;;4971801;28;20473;-71
2022/10/13 06:02:44;;;;;;;35.80;32.73;;;12.90;99.90;;;;;;4971650;28;20482;-71
2022/10/13 06:05:14;;;;;;;35.33;31.80;;;13.00;99.90;;;;;;4972199;28;20962;-71
2022/10/13 06:07:41;;;;;;;35.90;32.50;;;13.00;99.90;;;;;;4972286;28;20483;-72
2022/10/13 06:10:09;;;;;;;32.80;29.53;;;12.90;99.90;;;;;;4972279;28;20447;-72
2022/10/13 06:12:37;;;;;;;34.33;31.13;;;12.90;99.90;;;;;;4972190;28;20518;-72
2022/10/13 06:15:05;;;;;;;33.60;30.40;;;13.00;99.90;;;;;;4971665;28;20464;-72
2022/10/13 06:17:31;;;;;;;35.67;32.07;;;13.00;99.90;;;;;;4972172;28;20435;-73
2022/10/13 06:19:58;;;;;;;32.17;29.47;;;13.10;99.90;;;;;;4972270;28;20459;-73
2022/10/13 06:22:25;;;;;;;32.30;28.90;;;13.20;99.90;;;;;;4972175;28;20456;-73
2022/10/13 06:24:52;;;;;;;31.30;28.23;;;13.30;99.90;;;;;;4971850;28;20463;-72
2022/10/13 06:27:19;;;;;;;42.63;31.30;;;13.50;99.90;;;;;;4971675;28;20845;-73
2022/10/13 06:29:47;;;;;;;33.20;29.80;;;13.60;99.90;;;;;;4971896;28;20451;-74
2022/10/13 06:32:13;;;;;;;33.67;30.33;;;13.70;99.90;;;;;;4971774;28;20452;-72
2022/10/13 06:34:40;;;;;;;30.13;26.93;;;13.80;99.90;;;;;;4971500;28;20468;-70
2022/10/13 06:37:07;;;;;;;28.40;26.20;;;13.90;99.90;;;;;;4971452;28;20701;-72
2022/10/13 06:39:34;;;;;;;30.93;28.17;;;13.80;99.90;;;;;;4971332;28;20962;-73
2022/10/13 06:42:00;;;;;;;29.43;26.37;;;13.80;99.90;;;;;;4971599;28;20463;-72
2022/10/13 06:44:27;;;;;;;32.87;29.87;;;13.80;99.90;;;;;;4971373;28;20452;-71
2022/10/13 06:46:55;;;;;;;30.63;27.90;;;13.70;99.90;;;;;;4971710;28;20512;-72
2022/10/13 06:49:23;;;;;;;28.13;25.60;;;13.80;99.90;;;;;;4971350;28;20874;-73
2022/10/13 06:51:50;;;;;;;29.17;26.77;;;13.80;99.90;;;;;;4971724;28;20464;-72
2022/10/13 06:54:17;;;;;;;30.93;27.83;;;13.70;99.90;;;;;;4971727;28;20455;-72
2022/10/13 06:56:43;;;;;;;28.23;26.03;;;13.70;99.90;;;;;;4971827;28;20534;-72
2022/10/13 06:59:10;;;;;;;27.27;25.10;;;13.60;99.90;;;;;;4971218;28;20473;-71
2022/10/13 07:01:38;;;;;;;29.20;26.80;;;13.60;99.90;;;;;;4970769;28;20479;-71
2022/10/13 07:04:06;;;;;;;29.80;27.07;;;13.60;99.90;;;;;;4971297;28;20558;-72
2022/10/13 07:06:32;;;;;;;32.17;29.23;;;13.70;99.90;;;;;;4971161;28;20484;-72
2022/10/13 07:09:02;;;;;;;30.30;27.37;;;13.70;99.90;;;;;;4971466;28;20455;-72
2022/10/13 07:11:28;;;;;;;30.77;28.17;;;13.80;99.90;;;;;;4971725;28;20452;-72
2022/10/13 07:13:55;;;;;;;29.73;27.13;;;13.80;99.90;;;;;;4971286;28;20463;-72
2022/10/13 07:16:22;;;;;;;29.33;26.57;;;13.90;99.90;;;;;;4970979;28;20455;-73
2022/10/13 07:18:49;;;;;;;28.30;25.97;;;14.00;99.90;;;;;;4970727;28;20459;-72
2022/10/13 07:21:17;;;;;;;27.63;25.43;;;14.00;99.90;;;;;;4971087;28;20825;-72
2022/10/13 07:23:44;;;;;;;27.57;25.03;;;14.00;99.90;;;;;;4970971;28;20464;-73
2022/10/13 07:26:13;;;;;;;29.43;26.57;;;14.10;99.90;;;;;;4970630;28;20459;-72
2022/10/13 07:28:40;;;;;;;27.33;24.87;;;14.10;99.90;;;;;;4970601;28;20452;-72
2022/10/13 07:31:10;;;;;;;27.63;25.43;;;14.10;99.90;;;;;;4970520;28;20448;-72
2022/10/13 07:33:38;;;;;;;28.27;25.90;;;14.00;99.90;;;;;;4970616;28;20464;-72
2022/10/13 07:36:05;;;;;;;28.53;26.13;;;14.20;99.90;;;;;;4970451;28;20451;-72
2022/10/13 07:38:33;;;;;;;30.10;27.63;;;14.30;99.90;;;;;;4970775;28;20486;-73
2022/10/13 07:41:01;;;;;;;28.67;26.03;;;14.40;99.90;;;;;;4970936;28;20459;-72
2022/10/13 07:43:27;;;;;;;27.63;25.10;;;14.40;99.90;;;;;;4970880;28;20463;-73
2022/10/13 07:45:54;;;;;;;27.97;25.67;;;14.50;99.90;;;;;;4970183;28;20456;-72
2022/10/13 07:48:21;;;;;;;28.20;25.47;;;14.40;99.90;;;;;;4970344;28;20719;-72
2022/10/13 07:50:47;;;;;;;28.87;26.70;;;14.50;99.90;;;;;;4970269;28;20456;-72
2022/10/13 07:53:14;;;;;;;27.47;24.67;;;14.60;99.90;;;;;;4970523;28;20447;-72
2022/10/13 07:55:42;;;;;;;27.13;24.83;;;14.60;99.90;;;;;;4967251;28;20471;-72
2022/10/13 07:58:09;;;;;;;26.80;24.53;;;14.80;99.90;;;;;;4969851;28;20454;-72
2022/10/13 08:00:36;;;;;;;27.30;24.90;;;14.80;99.90;;;;;;4969822;28;20479;-72
2022/10/13 08:03:03;;;;;;;27.23;25.23;;;14.80;99.90;;;;;;4969740;28;20497;-72
2022/10/13 08:05:30;;;;;;;26.23;23.83;;;15.10;99.90;;;;;;4970187;28;20452;-72
2022/10/13 08:07:57;;;;;;;28.90;26.40;;;15.30;99.90;;;;;;4970083;28;20487;-72
2022/10/13 08:10:24;;;;;;;27.70;25.33;;;15.40;99.90;;;;;;4969904;28;20570;-72
2022/10/13 08:12:52;;;;;;;25.43;23.40;;;15.50;99.90;;;;;;4969729;28;20468;-72
2022/10/13 08:15:18;;;;;;;24.40;22.10;;;15.60;99.90;;;;;;4966667;28;20459;-72
2022/10/13 08:17:45;;;;;;;26.60;24.23;;;15.60;99.90;;;;;;4957558;28;20475;-72
2022/10/13 08:20:12;;;;;;;24.73;22.63;;;15.60;99.90;;;;;;4962647;28;20444;-72
2022/10/13 08:22:39;;;;;;;23.03;21.33;;;15.50;99.90;;;;;;4955024;28;20524;-72
2022/10/13 08:25:07;;;;;;;25.67;23.77;;;15.50;99.90;;;;;;4950307;28;20932;-73
2022/10/13 08:27:33;;;;;;;25.93;23.67;;;15.50;99.90;;;;;;4969363;28;20495;-73
2022/10/13 08:30:01;;;;;;;25.83;23.87;;;15.30;99.90;;;;;;4969963;28;20841;-72
2022/10/13 08:32:28;;;;;;;25.90;23.70;;;15.40;99.90;;;;;;4969837;28;20551;-73
2022/10/13 08:34:55;;;;;;;23.80;21.70;;;15.30;99.90;;;;;;4959360;28;20452;-72
2022/10/13 08:37:21;;;;;;;23.50;21.43;;;15.30;99.90;;;;;;4950440;29;20457;-72
2022/10/13 08:39:48;;;;;;;23.30;21.57;;;15.50;99.90;;;;;;4950632;29;20460;-72
2022/10/13 08:42:18;;;;;;;22.53;20.77;;;15.70;99.90;;;;;;4950754;29;20467;-72
2022/10/13 08:44:48;;;;;;;23.73;21.77;;;16.00;99.90;;;;;;4950904;29;20461;-72
2022/10/13 08:47:29;;;;;;;24.63;22.20;;;16.10;99.90;;;;;;4948853;29;20576;-71
2022/10/13 08:49:59;;;;;;;21.80;19.90;;;16.30;99.90;;;;;;4949072;29;20467;-72
2022/10/13 08:52:29;;;;;;;19.73;18.20;;;16.40;99.90;;;;;;4964022;28;20455;-72
2022/10/13 08:54:57;;;;;;;21.17;19.57;;;16.60;99.90;;;;;;4964061;28;20482;-72
2022/10/13 08:57:24;;;;;;;23.53;21.70;;;16.70;99.90;;;;;;4967749;28;20522;-73
2022/10/13 08:59:52;;;;;;;20.90;19.20;;;16.90;99.90;;;;;;4968912;28;20479;-71
2022/10/13 09:02:29;;;;;;;22.43;20.50;;;16.90;99.90;;;;;;4968483;28;20514;-71
2022/10/13 09:04:58;;;;;;;23.27;21.10;;;16.80;99.90;;;;;;4969203;28;20535;-72
2022/10/13 09:07:31;;;;;;;21.90;19.70;;;16.70;99.90;;;;;;4970308;28;20502;-72
2022/10/13 09:09:57;;;;;;;20.60;19.07;;;16.90;99.90;;;;;;4972971;28;20941;-72
2022/10/13 09:12:25;;;;;;;20.17;18.80;;;16.80;99.90;;;;;;4972696;28;20457;-72
2022/10/13 09:15:00;;;;;;;22.47;20.50;;;17.00;99.90;;;;;;4972880;28;20460;-73
2022/10/13 09:17:29;;;;;;;21.83;20.13;;;17.10;99.90;;;;;;4973100;28;21013;-72
2022/10/13 09:20:01;;;;;;;20.83;19.13;;;17.00;99.90;;;;;;4972994;28;20463;-72
2022/10/13 09:22:30;;;;;;;22.57;20.70;;;17.20;99.90;;;;;;4972807;28;20448;-72
2022/10/13 09:25:18;;;;;;;21.20;19.57;;;17.40;99.90;;;;;;4972072;28;20452;-72
2022/10/13 09:27:49;;;;;;;22.47;20.80;;;17.30;99.90;;;;;;4973189;28;20522;-72
2022/10/13 09:30:31;;;;;;;20.30;18.80;;;17.60;99.90;;;;;;4972953;28;20448;-72
2022/10/13 09:33:23;;;;;;;23.10;21.17;;;17.80;99.90;;;;;;4973258;28;20451;-73
2022/10/13 09:36:09;;;;;;;18.90;17.60;;;17.90;99.90;;;;;;4970679;28;20462;-72
2022/10/13 09:38:37;;;;;;;20.67;18.80;;;17.70;99.90;;;;;;4972330;28;20459;-72
2022/10/13 09:41:06;;;;;;;21.43;19.80;;;17.80;99.90;;;;;;4972466;28;20443;-73
2022/10/13 09:43:35;;;;;;;23.93;19.37;;;17.90;99.90;;;;;;4968853;28;21193;-72
2022/10/13 09:46:04;;;;;;;20.90;19.50;;;18.10;99.90;;;;;;4970789;28;20466;-73
2022/10/13 09:48:36;;;;;;;20.10;18.27;;;17.90;99.90;;;;;;4970709;28;20498;-73
2022/10/13 09:51:03;;;;;;;21.97;20.23;;;17.80;99.90;;;;;;4972701;28;20554;-73
2022/10/13 09:53:33;;;;;;;20.73;19.00;;;17.70;99.90;;;;;;4973053;28;20464;-73
2022/10/13 09:56:16;;;;;;;20.60;18.80;;;17.80;99.90;;;;;;4973371;28;20463;-72
2022/10/13 09:58:48;;;;;;;21.57;19.33;;;17.80;99.90;;;;;;4972365;28;20463;-71
2022/10/13 10:01:22;;;;;;;21.17;19.47;;;18.00;99.90;;;;;;4972364;28;20482;-72
2022/10/13 10:03:51;;;;;;;19.97;18.40;;;18.20;99.90;;;;;;4972143;28;20458;-72
2022/10/13 10:06:18;;;;;;;19.57;18.17;;;18.20;99.90;;;;;;4971985;28;20761;-73
2022/10/13 10:08:52;;;;;;;20.90;19.30;;;18.30;99.90;;;;;;4972225;28;20519;-72
2022/10/13 10:11:25;;;;;;;19.40;18.13;;;18.30;99.90;;;;;;4972152;28;20450;-73
2022/10/13 10:13:52;;;;;;;20.07;18.10;;;18.80;99.90;;;;;;4971789;28;20456;-72
2022/10/13 10:16:29;;;;;;;19.30;18.10;;;19.00;99.90;;;;;;4972115;28;20835;-72
2022/10/13 10:19:02;;;;;;;20.00;18.50;;;18.80;99.90;;;;;;4971660;28;20550;-72
2022/10/13 10:21:35;;;;;;;18.37;17.13;;;18.60;99.90;;;;;;4972463;28;20451;-72
2022/10/13 10:24:11;;;;;;;19.23;17.73;;;18.70;99.90;;;;;;4972236;28;20456;-73
2022/10/13 10:26:48;;;;;;;18.80;17.60;;;18.70;99.90;;;;;;4972017;28;20800;-73
2022/10/13 10:29:23;;;;;;;20.03;18.37;;;18.70;99.90;;;;;;4972219;28;20519;-72
2022/10/13 10:32:05;;;;;;;19.00;17.57;;;18.40;99.90;;;;;;4972073;28;20447;-72
2022/10/13 10:34:37;;;;;;;18.23;17.00;;;18.20;99.90;;;;;;4972504;28;20461;-72
2022/10/13 10:37:17;;;;;;;18.20;17.00;;;18.20;99.90;;;;;;4970644;28;20827;-72
2022/10/13 10:39:48;;;;;;;20.70;19.00;;;18.00;99.90;;;;;;4972169;28;20455;-72
2022/10/13 10:42:29;;;;;;;19.63;18.10;;;18.10;99.90;;;;;;4971671;28;20507;-73
2022/10/13 10:44:57;;;;;;;19.40;18.17;;;18.00;99.90;;;;;;4971744;28;21019;-72
2022/10/13 10:47:28;;;;;;;20.43;18.43;;;18.00;99.90;;;;;;4971268;28;20483;-73
2022/10/13 10:50:02;;;;;;;19.60;17.83;;;18.00;99.90;;;;;;4969845;28;20804;-72
2022/10/13 10:52:39;;;;;;;19.03;16.77;;;18.10;99.90;;;;;;4971808;28;20454;-73
2022/10/13 10:55:16;;;;;;;17.40;16.27;;;18.10;99.90;;;;;;4971331;28;20812;-73
2022/10/13 10:57:52;;;;;;;16.73;15.50;;;18.10;99.90;;;;;;4971650;28;20459;-73
2022/10/13 11:00:21;;;;;;;18.53;16.97;;;18.10;99.90;;;;;;4971584;28;20476;-73
2022/10/13 11:02:53;;;;;;;17.67;16.43;;;18.20;99.90;;;;;;4971174;28;20483;-72
2022/10/13 11:05:22;;;;;;;19.40;17.97;;;18.30;99.90;;;;;;4971165;28;20463;-72
2022/10/13 11:07:56;;;;;;;19.20;17.60;;;18.50;99.90;;;;;;4970858;28;20487;-73
2022/10/13 11:10:25;;;;;;;18.57;16.97;;;18.50;99.90;;;;;;4970955;28;20941;-72
2022/10/13 11:13:25;;;;;;;16.53;15.33;;;18.60;99.90;;;;;;4971106;28;20760;-73
2022/10/13 11:15:52;;;;;;;17.90;16.50;;;18.70;99.90;;;;;;4971031;28;20542;-73
2022/10/13 11:18:58;;;;;;;18.20;16.73;;;18.80;99.90;;;;;;4971079;28;20538;-72
2022/10/13 11:21:26;;;;;;;17.70;16.40;;;19.10;99.90;;;;;;4970913;28;20477;-74
2022/10/13 11:23:52;;;;;;;16.10;15.20;;;19.30;99.90;;;;;;4970853;28;20996;-73
2022/10/13 11:26:41;;;;;;;18.23;16.90;;;19.10;99.90;;;;;;4970806;28;20479;-73
2022/10/13 11:29:18;;;;;;;16.80;15.70;;;19.20;99.90;;;;;;4964553;28;21168;-73
2022/10/13 11:31:52;;;;;;;16.93;15.83;;;19.40;99.90;;;;;;4970393;28;20455;-72
2022/10/13 11:34:31;;;;;;;18.37;17.03;;;19.60;99.90;;;;;;4949010;28;20555;-72
2022/10/13 11:37:01;;;;;;;17.37;16.37;;;19.50;99.90;;;;;;4970553;28;20447;-73
2022/10/13 11:39:58;;;;;;;18.00;16.10;;;19.50;99.90;;;;;;4970597;28;20451;-73
2022/10/13 11:43:07;;;;;;;18.80;17.50;;;19.40;99.90;;;;;;4970251;28;20459;-73
2022/10/13 11:45:47;;;;;;;16.80;15.53;;;19.50;99.90;;;;;;4970206;28;20457;-72
2022/10/13 11:48:42;;;;;;;16.50;15.50;;;19.70;99.90;;;;;;4970349;28;20483;-73
2022/10/13 11:51:22;;;;;;;15.27;14.33;;;19.80;99.90;;;;;;4970194;28;20455;-73
2022/10/13 11:53:55;;;;;;;15.80;14.90;;;19.60;99.90;;;;;;4969967;28;20554;-72
2022/10/13 11:56:32;;;;;;;16.67;15.33;;;19.60;99.90;;;;;;4970146;28;20533;-72
2022/10/13 11:58:58;;;;;;;15.73;14.50;;;19.70;99.90;;;;;;4969750;28;22000;-73
2022/10/13 12:01:25;;;;;;;16.13;14.67;;;19.60;99.90;;;;;;4969035;28;20513;-73
2022/10/13 12:03:52;;;;;;;16.43;15.43;;;19.50;99.90;;;;;;4969752;28;20452;-73
2022/10/13 12:06:32;;;;;;;16.93;15.83;;;19.40;99.90;;;;;;4969785;28;20566;-73
2022/10/13 12:09:02;;;;;;;16.27;15.20;;;19.50;99.90;;;;;;4969549;28;20483;-73
2022/10/13 12:11:32;;;;;;;16.70;15.50;;;19.60;99.90;;;;;;4952201;28;20788;-74
2022/10/13 12:14:00;;;;;;;17.40;16.10;;;19.40;99.90;;;;;;4949772;28;20467;-73
2022/10/13 12:16:28;;;;;;;16.73;15.50;;;19.30;99.90;;;;;;4950544;29;20463;-72
2022/10/13 12:19:06;;;;;;;16.87;15.77;;;19.50;99.90;;;;;;4950620;29;20460;-72
2022/10/13 12:21:33;;;;;;;16.40;15.17;;;19.50;99.90;;;;;;4950485;29;20958;-71
2022/10/13 12:24:09;;;;;;;17.73;16.23;;;19.70;99.90;;;;;;4950818;29;20938;-72
2022/10/13 12:26:35;;;;;;;17.03;15.87;;;20.00;99.90;;;;;;4950619;29;20448;-72
2022/10/13 12:29:04;;;;;;;14.93;14.20;;;20.10;99.90;;;;;;4950386;29;20492;-72
2022/10/13 12:31:40;;;;;;;16.43;15.10;;;20.30;99.90;;;;;;4950669;29;20845;-72
2022/10/13 12:34:18;;;;;;;17.50;15.97;;;20.40;99.90;;;;;;4950508;29;20655;-72
2022/10/13 12:36:47;;;;;;;16.30;15.37;;;20.10;99.90;;;;;;4950778;29;20456;-72
2022/10/13 12:39:18;;;;;;;17.33;15.87;;;20.30;99.90;;;;;;4950649;29;20837;-72
2022/10/13 12:41:47;;;;;;;16.60;15.70;;;20.50;99.90;;;;;;4951203;28;20528;-72
2022/10/13 12:44:17;;;;;;;16.83;15.20;;;20.50;99.90;;;;;;4954613;29;20452;-72
2022/10/13 12:46:45;;;;;;;16.07;14.97;;;20.50;99.90;;;;;;4954470;29;20472;-72
2022/10/13 12:49:17;;;;;;;15.57;14.47;;;20.70;99.90;;;;;;4954389;29;20519;-72
2022/10/13 12:51:46;;;;;;;16.97;15.90;;;21.40;99.90;;;;;;4954320;29;20452;-72
2022/10/13 12:54:23;;;;;;;17.60;16.27;;;21.80;99.90;;;;;;4954415;29;20440;-72
2022/10/13 12:56:52;;;;;;;18.53;17.23;;;21.80;99.90;;;;;;4954350;29;20470;-72
2022/10/13 12:59:20;;;;;;;17.13;15.77;;;21.30;99.90;;;;;;4953923;29;20453;-72
2022/10/13 13:01:53;;;;;;;16.90;15.53;;;21.10;99.90;;;;;;4954077;28;20525;-72
2022/10/13 13:04:40;;;;;;;15.97;15.07;;;21.00;99.90;;;;;;4953967;29;20458;-72
2022/10/13 13:07:25;;;;;;;16.40;15.20;;;21.10;99.90;;;;;;4954186;29;20519;-72
2022/10/13 13:10:03;;;;;;;15.70;14.60;;;20.70;99.90;;;;;;4953696;29;20688;-72
2022/10/13 13:12:30;;;;;;;16.37;14.70;;;20.70;99.90;;;;;;4953978;29;20478;-72
2022/10/13 13:14:58;;;;;;;16.63;15.50;;;20.90;99.90;;;;;;4953944;29;20452;-72
2022/10/13 13:17:28;;;;;;;15.90;14.60;;;20.70;99.90;;;;;;4954387;29;20456;-72
2022/10/13 13:19:57;;;;;;;17.00;15.60;;;20.50;99.90;;;;;;4953996;29;20479;-71
2022/10/13 13:22:24;;;;;;;17.20;16.20;;;20.60;99.90;;;;;;4953834;29;20465;-72
2022/10/13 13:24:51;;;;;;;16.83;15.63;;;20.40;99.90;;;;;;4953703;29;20448;-73
2022/10/13 13:27:24;;;;;;;15.13;14.13;;;20.20;99.90;;;;;;4953765;29;20444;-73
2022/10/13 13:29:51;;;;;;;17.97;16.93;;;20.10;99.90;;;;;;4953613;29;21049;-73
2022/10/13 13:32:20;;;;;;;17.83;16.33;;;20.00;99.90;;;;;;4953783;29;20457;-72
2022/10/13 13:34:47;;;;;;;17.23;15.87;;;20.00;99.90;;;;;;4952925;28;20832;-73
2022/10/13 13:37:22;;;;;;;17.50;16.30;;;20.10;99.90;;;;;;4965067;28;20444;-72
2022/10/13 13:39:49;;;;;;;18.33;17.13;;;20.20;99.90;;;;;;4960659;28;20447;-73
2022/10/13 13:42:16;;;;;;;17.60;16.40;;;20.00;99.90;;;;;;4973013;28;20452;-73
2022/10/13 13:44:44;;;;;;;17.17;15.33;;;19.90;99.90;;;;;;4960725;28;20943;-73
2022/10/13 13:47:19;;;;;;;16.70;15.50;;;19.90;99.90;;;;;;4953439;29;20444;-73
2022/10/13 13:49:47;;;;;;;15.80;14.80;;;19.80;99.90;;;;;;4953637;29;20491;-73
2022/10/13 13:52:14;;;;;;;16.10;15.20;;;19.50;99.90;;;;;;4957739;28;20447;-73
2022/10/13 13:54:41;;;;;;;18.83;17.73;;;19.50;99.90;;;;;;4971744;28;20486;-73
2022/10/13 13:57:09;;;;;;;17.30;16.00;;;19.50;99.90;;;;;;4972640;28;20452;-72
2022/10/13 13:59:35;;;;;;;19.40;18.07;;;19.60;99.90;;;;;;4972052;28;20448;-73
2022/10/13 14:02:04;;;;;;;17.03;15.57;;;19.60;99.90;;;;;;4971933;28;20512;-71
2022/10/13 14:04:31;;;;;;;15.17;14.13;;;19.80;99.90;;;;;;4972223;28;20460;-74
2022/10/13 14:06:57;;;;;;;16.30;15.20;;;19.90;99.90;;;;;;4972341;28;20452;-71
2022/10/13 14:09:24;;;;;;;18.87;17.53;;;19.90;99.90;;;;;;4967130;28;20487;-71
2022/10/13 14:11:51;;;;;;;18.20;17.10;;;19.80;99.90;;;;;;4952818;29;20457;-71
2022/10/13 14:14:17;;;;;;;18.80;17.30;;;19.70;99.90;;;;;;4952726;29;20464;-71
2022/10/13 14:16:44;;;;;;;16.30;15.30;;;19.80;99.90;;;;;;4952974;29;20834;-72
2022/10/13 14:19:12;;;;;;;17.70;16.70;;;19.90;99.90;;;;;;4953035;29;20578;-72
2022/10/13 14:21:39;;;;;;;16.40;15.57;;;19.90;99.90;;;;;;4952902;29;20452;-72
2022/10/13 14:24:06;;;;;;;17.20;15.67;;;20.10;99.90;;;;;;4952747;29;20805;-72
2022/10/13 14:26:33;;;;;;;16.97;15.60;;;20.10;99.90;;;;;;4952851;29;20495;-71
2022/10/13 14:29:00;;;;;;;17.77;16.57;;;20.00;99.90;;;;;;4952644;29;20484;-72
2022/10/13 14:31:27;;;;;;;18.13;16.60;;;19.90;99.90;;;;;;4952686;29;20859;-72
2022/10/13 14:33:54;;;;;;;16.00;14.97;;;19.90;99.90;;;;;;4952518;29;20488;-73
2022/10/13 14:36:22;;;;;;;18.10;16.10;;;19.80;99.90;;;;;;4955559;28;20706;-73
2022/10/13 14:38:50;;;;;;;18.03;16.70;;;19.60;99.90;;;;;;4968887;28;20456;-72
2022/10/13 14:41:17;;;;;;;18.07;16.57;;;19.60;99.90;;;;;;4971431;28;20456;-72
2022/10/13 14:43:44;;;;;;;19.90;18.40;;;19.60;99.90;;;;;;4971698;28;20455;-72
2022/10/13 14:46:11;;;;;;;19.17;17.77;;;19.40;99.90;;;;;;4971543;28;20558;-73
2022/10/13 14:48:39;;;;;;;18.53;17.10;;;19.50;99.90;;;;;;4970915;28;20568;-72
2022/10/13 14:51:06;;;;;;;18.40;17.00;;;19.60;99.90;;;;;;4971209;28;21153;-72
2022/10/13 14:53:36;;;;;;;17.53;16.37;;;19.70;99.90;;;;;;4970865;28;20883;-73
2022/10/13 14:56:12;;;;;;;17.63;16.53;;;19.40;99.90;;;;;;4971134;28;20455;-71
2022/10/13 14:58:38;;;;;;;17.50;16.30;;;19.30;99.90;;;;;;4971235;28;20455;-73
2022/10/13 15:01:05;;;;;;;18.93;17.20;;;19.20;99.90;;;;;;4970790;28;21047;-72
2022/10/13 15:03:32;;;;;;;20.53;18.83;;;19.20;99.90;;;;;;4970828;28;20462;-72
2022/10/13 15:05:59;;;;;;;18.80;17.70;;;19.00;99.90;;;;;;4970892;28;20925;-72
2022/10/13 15:08:26;;;;;;;18.23;16.93;;;19.00;99.90;;;;;;4970798;28;20519;-72
2022/10/13 15:11:00;;;;;;;18.73;17.53;;;18.90;99.90;;;;;;4970574;28;20884;-70
2022/10/13 15:13:28;;;;;;;19.10;18.00;;;18.90;99.90;;;;;;4970694;28;20447;-72
2022/10/13 15:15:55;;;;;;;25.47;23.77;;;18.90;99.90;;;;;;4969332;28;20470;-75
2022/10/13 15:18:21;;;;;;;23.63;22.20;;;18.80;99.90;;;;;;4970850;28;20451;-75
2022/10/13 15:20:48;;;;;;;25.43;23.53;;;18.40;99.90;;;;;;4970798;28;20455;-74
2022/10/13 15:23:16;;;;;;;27.00;24.70;;;18.20;99.90;;;;;;4970859;28;20460;-77
2022/10/13 15:25:50;;;;;;;23.30;21.80;;;18.10;99.90;;;;;;4970812;28;20451;-76
2022/10/13 15:28:18;;;;;;;24.87;23.00;;;17.90;99.90;;;;;;4970560;28;20459;-74
2022/10/13 15:30:45;;;;;;;22.60;21.30;;;17.70;99.90;;;;;;4970879;28;20978;-74
2022/10/13 15:33:12;;;;;;;23.70;22.23;;;17.70;99.90;;;;;;4970664;28;20456;-75
2022/10/13 15:35:39;;;;;;;21.37;20.07;;;17.70;99.90;;;;;;4970363;28;20563;-75
2022/10/13 15:38:05;;;;;;;23.70;21.70;;;17.80;99.90;;;;;;4970315;28;20455;-74
2022/10/13 15:40:33;;;;;;;23.20;21.50;;;17.80;99.90;;;;;;4970363;28;20447;-74